Delmar, Maryland
Current Conditions -  °F | °C
As of 9:54 AM on Friday 24 Oct 2014 (Local Time) from KSBY Reporting Station
Clear Clear  
Wind Chill: 61°   Ceiling: Unl
Heat Index: 61°   Visibility: 10mi
Dew Point: 46°   Wind: 15mph
Humidity: 58%   Direction: 310°NW
Pressure: 29.91"   Gusts: 23mph
Location:  38.46°N, 75.58°W
Report Text: KSBY 241354Z 31013G20KT 10SM CLR 16/08 A2991 RMK AO2 SLP132 T01610078
Loading
Personal Weather Stations






























Interactive Weather Map
Tropical Storm Tracking
New forecast layout! Learn more

10-Day Weather Forecast

Advertisements
Track Severe Weather on mobile